ESDF

Ronneby Airport

Sweden
METAR ESDF 260250Z AUTO 35006KT 9999 -SN VV026 M07/M09 Q1033
Observed Flight Rules
Feb-26 @ 02:50 UTC (38 minutes ago) Instrument Flight Rules
Wind Visibility Clouds Conditions
350° at 6 knots 10,000+ meters
  • Vertical visibility at 2,600' AGL
  • Light Snow
Temperatures Readings
Current -7°C / 19°F
Dewpoint -9°C / 16°F
Humidity 86%
Altimeter 30.5" Hg
Pressure 1033 hPa
Elevation 74
METAR ESDF 260250Z AUTO 35006KT 9999 -SN VV026 M07/M09 Q1033
Observed Flight Rules
Feb-26 @ 02:50 UTC
(38 minutes ago)
LIFR
Wind Visibility
350° at 6 knots 10,000+ meters
Clouds
  • Vertical visibility at 2,600' AGL
Conditions
  • Light Snow
Temperature Dewpoint
-7°C / 19°F -9°C / 16°F
Humidity Altimeter Pressure
86% 30.5" Hg 1033 hPa